Terminal Aerodrome Forecast
Issued by NWS Green Bay, WI

Home | Current Version | Previous Version | Text Only | Print | Product List | Glossary On
Versions: 1 2 3 4 5 6 7 8 9 10 11 12 13 14 15 16 17 18 19 20 21 22 23 24 25 26 27 28 29 30 31 32 33 34 35
000
FTUS43 KGRB 311100
TAFGRB
TAF
KGRB 311137Z 3112/0112 21006KT P6SM SCT025 BKN040
      TEMPO 3112/3115 BKN025
     FM311500 27005KT P6SM BKN030 OVC080
     FM311800 32009KT P6SM -SHSN BKN035 OVC080
     FM010200 02012G20KT P6SM SCT025 BKN035
     FM011000 02015G25KT P6SM -SN BKN025=

USA.gov is the U.S. government's official web portal to all federal, state and local government web resources and services.